createdAt,value
2023-01-27T00:01:18.835Z,42.13
2023-01-27T00:03:47.360Z,42.70
2023-01-27T00:06:16.526Z,46.22
2023-01-27T00:08:45.230Z,40.72
2023-01-27T00:11:31.126Z,48.05
2023-01-27T00:14:08.030Z,44.30
2023-01-27T00:16:36.425Z,38.95
2023-01-27T00:19:10.223Z,39.17
2023-01-27T00:21:55.916Z,43.50
2023-01-27T00:24:39.223Z,39.97
2023-01-27T00:27:09.743Z,50.75
2023-01-27T00:29:39.584Z,41.03
2023-01-27T00:32:31.220Z,43.42
2023-01-27T00:34:59.394Z,44.67
2023-01-27T00:37:28.508Z,41.83
2023-01-27T00:39:56.581Z,49.20
2023-01-27T00:42:24.648Z,45.65
2023-01-27T00:45:12.137Z,47.00
2023-01-27T00:47:40.208Z,49.03
2023-01-27T00:50:09.482Z,50.20
2023-01-27T00:52:38.579Z,51.35
2023-01-27T00:55:07.360Z,47.17
2023-01-27T00:57:35.579Z,49.72
2023-01-27T01:00:06.562Z,45.55
2023-01-27T01:02:34.569Z,46.28
2023-01-27T01:05:03.051Z,51.10
2023-01-27T01:07:30.940Z,48.20
2023-01-27T01:09:59.540Z,53.42
2023-01-27T01:12:28.000Z,46.60
2023-01-27T01:14:59.131Z,44.28
2023-01-27T01:17:28.653Z,56.80
2023-01-27T01:19:59.356Z,45.00
2023-01-27T01:22:30.298Z,51.60
2023-01-27T01:24:58.369Z,46.28
2023-01-27T01:27:27.312Z,48.35
2023-01-27T01:29:55.591Z,49.78
2023-01-27T01:32:23.734Z,52.50
2023-01-27T01:34:53.434Z,51.80
2023-01-27T01:37:22.501Z,50.40
2023-01-27T01:39:51.055Z,52.15
2023-01-27T01:42:19.789Z,48.40
2023-01-27T01:44:49.497Z,52.00
2023-01-27T01:47:18.700Z,50.97
2023-01-27T01:49:48.730Z,50.33
2023-01-27T01:52:21.787Z,51.88
2023-01-27T01:54:53.134Z,44.95
2023-01-27T01:57:24.871Z,49.05
2023-01-27T01:59:57.237Z,42.70
2023-01-27T02:02:28.464Z,52.97
2023-01-27T02:05:01.146Z,49.58
2023-01-27T02:07:37.224Z,44.55
2023-01-27T02:10:06.357Z,47.92
2023-01-27T02:12:34.458Z,50.75
2023-01-27T02:15:04.071Z,50.40
2023-01-27T02:17:32.439Z,47.88
2023-01-27T02:20:08.692Z,52.05
2023-01-27T02:22:45.833Z,49.97
2023-01-27T02:25:22.338Z,56.85
2023-01-27T02:27:51.739Z,55.22
2023-01-27T02:30:20.692Z,53.72
2023-01-27T02:32:50.621Z,53.50
2023-01-27T02:35:23.848Z,54.22
2023-01-27T02:37:55.887Z,53.08
2023-01-27T02:40:25.417Z,49.23
2023-01-27T02:42:57.488Z,47.33
2023-01-27T02:45:25.466Z,56.93
2023-01-27T02:47:53.770Z,45.03
2023-01-27T02:50:22.230Z,47.40
2023-01-27T02:52:50.241Z,50.08
2023-01-27T02:55:18.549Z,50.92
2023-01-27T02:57:46.569Z,46.00
2023-01-27T03:00:16.199Z,51.53
2023-01-27T03:02:45.618Z,52.53
2023-01-27T03:05:15.205Z,58.80
2023-01-27T03:07:44.095Z,50.63
2023-01-27T03:10:12.485Z,48.92
2023-01-27T03:12:40.509Z,49.75
2023-01-27T03:15:28.069Z,52.90
2023-01-27T03:18:12.728Z,52.35
2023-01-27T03:20:41.280Z,45.85
2023-01-27T03:23:09.767Z,45.92
2023-01-27T03:25:38.181Z,51.38
2023-01-27T03:28:06.376Z,48.83
2023-01-27T03:30:34.771Z,48.10
2023-01-27T03:33:06.562Z,49.47
2023-01-27T03:35:39.124Z,56.45
2023-01-27T03:38:29.259Z,50.78
2023-01-27T03:41:15.199Z,43.95
2023-01-27T03:44:00.849Z,48.03
2023-01-27T03:46:29.439Z,49.45
2023-01-27T03:48:59.796Z,48.15
2023-01-27T03:51:28.635Z,46.60
2023-01-27T03:53:56.922Z,54.50
2023-01-27T03:56:25.305Z,44.90
2023-01-27T03:58:53.334Z,43.65
2023-01-27T04:01:23.126Z,47.13
2023-01-27T04:04:09.288Z,43.35
2023-01-27T04:06:58.386Z,48.08
2023-01-27T04:09:28.935Z,42.70
2023-01-27T04:11:59.101Z,46.55
2023-01-27T04:14:29.993Z,54.30
2023-01-27T04:17:00.539Z,50.00
2023-01-27T04:19:28.909Z,46.63
2023-01-27T04:21:59.228Z,45.03
2023-01-27T04:24:27.608Z,42.15
2023-01-27T04:26:58.004Z,46.95
2023-01-27T04:29:27.564Z,45.97
2023-01-27T04:31:58.449Z,42.45
2023-01-27T04:34:27.184Z,44.70
2023-01-27T04:36:55.713Z,43.03
2023-01-27T04:39:26.570Z,46.42
2023-01-27T04:41:54.718Z,42.08
2023-01-27T04:44:22.683Z,39.72
2023-01-27T04:46:51.321Z,38.45
2023-01-27T04:49:19.959Z,47.55
2023-01-27T04:51:48.475Z,41.45
2023-01-27T04:54:16.452Z,45.60
2023-01-27T04:56:58.129Z,47.70
2023-01-27T04:59:26.780Z,42.72
2023-01-27T05:01:54.804Z,41.08
2023-01-27T05:04:22.933Z,37.55
2023-01-27T05:06:51.152Z,39.67
2023-01-27T05:09:19.311Z,39.65
2023-01-27T05:11:49.928Z,39.88
2023-01-27T05:14:18.099Z,35.92
2023-01-27T05:16:46.918Z,37.60
2023-01-27T05:19:14.822Z,35.42
2023-01-27T05:21:43.369Z,41.15
2023-01-27T05:24:12.285Z,41.53
2023-01-27T05:26:40.724Z,40.28
2023-01-27T05:29:13.461Z,51.60
2023-01-27T05:31:41.776Z,61.42
2023-01-27T05:34:10.841Z,48.08
2023-01-27T05:36:38.869Z,43.83
2023-01-27T05:39:08.859Z,37.83
2023-01-27T05:41:36.972Z,35.50
2023-01-27T05:44:05.911Z,32.95
2023-01-27T05:46:35.703Z,36.90
2023-01-27T05:49:05.567Z,29.02
2023-01-27T05:51:37.049Z,39.13
2023-01-27T05:54:05.467Z,32.33
2023-01-27T05:56:34.017Z,31.48
2023-01-27T05:59:02.270Z,36.75
2023-01-27T06:01:32.795Z,30.98
2023-01-27T06:04:03.048Z,31.90
2023-01-27T06:06:32.740Z,33.30
2023-01-27T06:09:01.506Z,33.33
2023-01-27T06:11:30.202Z,34.25
2023-01-27T06:13:58.657Z,28.25
2023-01-27T06:16:27.502Z,31.23
2023-01-27T06:18:55.625Z,31.33
2023-01-27T06:21:25.207Z,32.10
2023-01-27T06:23:58.539Z,31.35
2023-01-27T06:26:26.903Z,34.15
2023-01-27T06:28:58.628Z,29.00
2023-01-27T06:31:27.784Z,36.17
2023-01-27T06:33:58.726Z,26.63
2023-01-27T06:36:28.559Z,30.58
2023-01-27T06:38:56.504Z,27.20
2023-01-27T06:41:25.004Z,29.65
2023-01-27T06:43:53.342Z,27.48
2023-01-27T06:46:21.527Z,32.35
2023-01-27T06:48:50.555Z,28.67
2023-01-27T06:51:19.126Z,32.60
2023-01-27T06:53:48.543Z,37.95
2023-01-27T06:56:17.607Z,35.63
2023-01-27T06:58:46.075Z,31.65
2023-01-27T07:01:14.163Z,28.27
2023-01-27T07:03:44.733Z,35.95
2023-01-27T07:06:14.921Z,37.20
2023-01-27T07:08:45.642Z,30.45
2023-01-27T07:11:15.098Z,39.78
2023-01-27T07:13:43.585Z,36.67
2023-01-27T07:16:11.662Z,38.63
2023-01-27T07:18:40.502Z,43.08
2023-01-27T07:21:11.247Z,37.33
2023-01-27T07:23:41.451Z,41.75
2023-01-27T07:26:24.313Z,43.65
2023-01-27T07:28:54.778Z,41.70
2023-01-27T07:31:22.917Z,36.40
2023-01-27T07:33:53.346Z,31.75
2023-01-27T07:36:24.216Z,39.10
2023-01-27T07:38:52.511Z,36.47
2023-01-27T07:41:20.653Z,35.05
2023-01-27T07:43:52.221Z,41.10
2023-01-27T07:46:21.958Z,38.25
2023-01-27T07:48:50.475Z,36.67
2023-01-27T07:51:18.959Z,37.45
2023-01-27T07:53:47.568Z,31.88
2023-01-27T07:56:15.722Z,41.00
2023-01-27T07:58:44.258Z,35.17
2023-01-27T08:01:15.213Z,35.70
2023-01-27T08:03:44.823Z,39.22
2023-01-27T08:06:16.180Z,34.70
2023-01-27T08:08:44.184Z,38.17
2023-01-27T08:11:14.713Z,29.55
2023-01-27T08:13:43.850Z,36.17
2023-01-27T08:16:15.646Z,37.53
2023-01-27T08:18:45.220Z,39.08
2023-01-27T08:21:21.623Z,31.02
2023-01-27T08:23:49.668Z,32.30
2023-01-27T08:26:17.787Z,31.40
2023-01-27T08:28:45.820Z,32.60
2023-01-27T08:31:15.527Z,34.75
2023-01-27T08:33:47.340Z,33.47
2023-01-27T08:36:21.583Z,34.58
2023-01-27T08:38:50.268Z,42.83
2023-01-27T08:41:20.440Z,35.83
2023-01-27T08:43:48.615Z,33.83
2023-01-27T08:46:16.959Z,39.13
2023-01-27T08:48:46.731Z,33.47
2023-01-27T08:51:18.282Z,33.13
2023-01-27T08:53:46.739Z,33.13
2023-01-27T08:56:17.082Z,30.17
2023-01-27T08:58:48.578Z,31.67
2023-01-27T09:01:17.674Z,37.60
2023-01-27T09:03:48.245Z,30.42
2023-01-27T09:06:17.393Z,65.82
2023-01-27T09:09:06.156Z,58.58
2023-01-27T09:11:34.978Z,30.77
2023-01-27T09:14:02.996Z,35.50
2023-01-27T09:16:31.166Z,29.20
2023-01-27T09:19:02.163Z,33.33
2023-01-27T09:21:30.312Z,31.33
2023-01-27T09:23:58.442Z,40.28
2023-01-27T09:26:26.766Z,81.50
2023-01-27T09:28:54.945Z,88.63
2023-01-27T09:31:23.018Z,52.00
2023-01-27T09:33:51.077Z,31.75
2023-01-27T09:36:22.977Z,123.35
2023-01-27T09:38:55.431Z,45.65
2023-01-27T09:41:54.513Z,30.85
2023-01-27T09:44:39.241Z,19.13
2023-01-27T09:47:24.971Z,21.52
2023-01-27T09:50:19.502Z,18.20
2023-01-27T09:53:21.366Z,21.48
2023-01-27T09:55:57.995Z,16.52
2023-01-27T09:58:42.376Z,18.65
2023-01-27T10:01:19.885Z,18.95
2023-01-27T10:04:24.484Z,17.25
2023-01-27T10:07:06.564Z,16.17
2023-01-27T10:09:55.756Z,16.65
2023-01-27T10:12:43.261Z,14.68
2023-01-27T10:15:24.829Z,16.02
2023-01-27T10:18:01.633Z,13.68
2023-01-27T10:20:38.121Z,14.98
2023-01-27T10:23:16.027Z,16.63
2023-01-27T10:25:56.023Z,15.80
2023-01-27T10:28:28.017Z,13.05
2023-01-27T10:31:01.426Z,21.40
2023-01-27T10:33:41.345Z,22.05
2023-01-27T10:36:17.448Z,18.48
2023-01-27T10:38:50.375Z,24.83
2023-01-27T10:41:31.289Z,23.27
2023-01-27T10:44:11.564Z,29.70
2023-01-27T10:46:49.938Z,20.65
2023-01-27T10:49:24.273Z,28.00
2023-01-27T10:51:56.758Z,27.73
2023-01-27T10:54:34.240Z,23.63
2023-01-27T10:57:07.552Z,17.08
2023-01-27T10:59:50.232Z,18.83
2023-01-27T11:02:36.614Z,17.90
2023-01-27T11:05:09.745Z,16.15
2023-01-27T11:10:20.234Z,13.07
2023-01-27T11:12:55.402Z,18.45
2023-01-27T11:15:29.332Z,14.68
2023-01-27T11:18:02.574Z,11.18
2023-01-27T11:20:35.437Z,13.32
2023-01-27T11:23:12.145Z,13.15
2023-01-27T11:25:48.571Z,26.75
2023-01-27T11:28:29.327Z,22.27
2023-01-27T11:31:09.044Z,25.55
2023-01-27T11:33:51.893Z,24.10
2023-01-27T11:36:20.272Z,16.52
2023-01-27T11:38:48.289Z,13.15
2023-01-27T11:41:16.415Z,13.95
2023-01-27T11:43:46.577Z,16.15
2023-01-27T11:46:23.874Z,15.73
2023-01-27T11:48:56.824Z,17.98
2023-01-27T11:51:26.531Z,19.92
2023-01-27T11:54:13.068Z,19.13
2023-01-27T11:56:42.480Z,21.38
2023-01-27T11:59:17.939Z,17.77
2023-01-27T12:01:52.669Z,19.02
2023-01-27T12:04:25.491Z,16.25
2023-01-27T12:07:00.390Z,13.75
2023-01-27T12:09:33.123Z,13.68
2023-01-27T12:12:25.960Z,11.02
2023-01-27T12:14:57.903Z,8.93
2023-01-27T12:17:32.799Z,12.32
2023-01-27T12:20:07.036Z,9.38
2023-01-27T12:22:38.535Z,10.82
2023-01-27T12:25:15.105Z,9.20
2023-01-27T12:27:51.035Z,7.47
2023-01-27T12:30:23.965Z,7.43
2023-01-27T12:32:53.131Z,7.53
2023-01-27T12:35:24.754Z,9.52
2023-01-27T12:37:59.561Z,8.40
2023-01-27T12:40:29.569Z,10.93
2023-01-27T12:43:28.029Z,8.77
2023-01-27T12:46:22.828Z,8.48
2023-01-27T12:48:52.808Z,8.52
2023-01-27T12:51:23.492Z,8.98
2023-01-27T12:54:12.575Z,6.80
2023-01-27T12:56:40.753Z,10.57
2023-01-27T12:59:19.569Z,8.07
2023-01-27T13:02:01.040Z,7.28
2023-01-27T13:04:30.515Z,9.80
2023-01-27T13:07:08.016Z,7.93
2023-01-27T13:09:40.964Z,7.70
2023-01-27T13:12:17.882Z,9.07
2023-01-27T13:14:49.297Z,6.43
2023-01-27T13:17:44.651Z,6.75
2023-01-27T13:20:21.246Z,8.30
2023-01-27T13:22:53.123Z,8.25
2023-01-27T13:25:24.843Z,8.18
2023-01-27T13:28:00.813Z,7.22
2023-01-27T13:30:34.272Z,5.38
2023-01-27T13:33:17.741Z,7.00
2023-01-27T13:35:57.237Z,7.05
2023-01-27T13:38:32.247Z,6.15
2023-01-27T13:41:04.506Z,6.85
2023-01-27T13:43:37.162Z,9.13
2023-01-27T13:46:11.474Z,10.95
2023-01-27T13:48:45.459Z,9.45
2023-01-27T13:51:19.013Z,10.00
2023-01-27T13:53:49.981Z,10.88
2023-01-27T13:56:33.770Z,15.90
2023-01-27T13:59:12.342Z,18.60
2023-01-27T14:01:51.327Z,11.70
2023-01-27T14:04:41.074Z,12.38
2023-01-27T14:07:18.821Z,10.70
2023-01-27T14:10:00.279Z,10.88
2023-01-27T14:12:41.127Z,8.43
2023-01-27T14:15:23.675Z,10.38
2023-01-27T14:17:58.021Z,9.70
2023-01-27T14:20:57.736Z,9.38
2023-01-27T14:23:37.261Z,8.85
2023-01-27T14:26:16.148Z,11.35
2023-01-27T14:28:58.989Z,9.55
2023-01-27T14:31:47.135Z,19.95
2023-01-27T14:34:31.968Z,9.55
2023-01-27T14:37:11.298Z,8.43
2023-01-27T14:39:49.191Z,11.77
2023-01-27T14:42:25.809Z,10.10
2023-01-27T14:45:03.815Z,11.38
2023-01-27T14:47:39.912Z,9.73
2023-01-27T14:50:22.186Z,9.57
2023-01-27T14:53:02.865Z,7.37
2023-01-27T14:55:38.353Z,8.48
2023-01-27T14:58:22.971Z,9.15
2023-01-27T15:01:02.248Z,8.32
2023-01-27T15:03:52.096Z,9.48
2023-01-27T15:06:26.659Z,8.98
2023-01-27T15:09:02.688Z,66.95
2023-01-27T15:11:53.645Z,17.60
2023-01-27T15:14:50.913Z,8.18
2023-01-27T15:17:37.332Z,11.55
2023-01-27T15:20:37.390Z,13.05
2023-01-27T15:23:22.967Z,9.38
2023-01-27T15:25:55.448Z,6.53
2023-01-27T15:28:30.120Z,9.40
2023-01-27T15:31:22.224Z,7.43
2023-01-27T15:33:53.287Z,8.00
2023-01-27T15:36:33.180Z,8.00
2023-01-27T15:39:03.741Z,7.90
2023-01-27T15:41:36.217Z,9.68
2023-01-27T15:44:06.671Z,13.77
2023-01-27T15:46:37.644Z,28.02
2023-01-27T15:49:15.283Z,29.17
2023-01-27T15:51:43.595Z,14.43
2023-01-27T15:54:18.808Z,27.73
2023-01-27T15:56:52.549Z,25.40
2023-01-27T15:59:25.050Z,13.82
2023-01-27T16:02:04.453Z,14.60
2023-01-27T16:04:35.745Z,24.02
2023-01-27T16:07:07.255Z,24.48
2023-01-27T16:09:41.644Z,24.52
2023-01-27T16:12:37.672Z,23.90
2023-01-27T16:15:22.967Z,11.18
2023-01-27T16:18:17.915Z,12.93
2023-01-27T16:20:53.073Z,18.38
2023-01-27T16:23:33.170Z,14.10
2023-01-27T16:26:18.999Z,12.65
2023-01-27T16:28:53.465Z,8.95
2023-01-27T16:31:28.245Z,8.50
2023-01-27T16:34:00.043Z,13.82
2023-01-27T16:36:30.919Z,8.98
2023-01-27T16:39:06.816Z,11.38
2023-01-27T16:41:42.271Z,8.00
2023-01-27T16:44:21.269Z,9.30
2023-01-27T16:46:52.553Z,7.82
2023-01-27T16:49:25.115Z,17.25
2023-01-27T16:51:56.118Z,9.35
2023-01-27T16:54:30.539Z,7.60
2023-01-27T16:56:59.920Z,9.90
2023-01-27T16:59:33.188Z,9.18
2023-01-27T17:02:03.759Z,9.45
2023-01-27T17:04:32.928Z,7.45
2023-01-27T17:07:10.283Z,8.25
2023-01-27T17:09:55.581Z,8.02
2023-01-27T17:12:33.280Z,5.20
2023-01-27T17:15:16.222Z,5.45
2023-01-27T17:17:45.233Z,4.20
2023-01-27T17:20:25.708Z,4.68
2023-01-27T17:22:55.698Z,7.63
2023-01-27T17:25:30.708Z,3.85
2023-01-27T17:28:02.576Z,4.82
2023-01-27T17:30:39.554Z,4.10
2023-01-27T17:33:09.808Z,4.85
2023-01-27T17:35:40.699Z,4.55
2023-01-27T17:38:15.336Z,4.55
2023-01-27T17:40:45.573Z,5.20
2023-01-27T17:43:31.016Z,5.07
2023-01-27T17:46:25.283Z,5.00
2023-01-27T17:48:55.623Z,16.90
2023-01-27T17:51:26.050Z,6.35
2023-01-27T17:53:58.199Z,5.72
2023-01-27T17:56:31.534Z,6.23
2023-01-27T17:59:04.629Z,6.95
2023-01-27T18:04:03.562Z,4.97
2023-01-27T18:06:32.150Z,4.45
2023-01-27T18:09:02.991Z,6.05
2023-01-27T18:11:33.935Z,8.50
2023-01-27T18:14:07.816Z,5.80
2023-01-27T18:16:37.655Z,7.15
2023-01-27T18:19:18.504Z,10.57
2023-01-27T18:21:47.155Z,11.40
2023-01-27T18:24:23.117Z,8.15
2023-01-27T18:26:51.774Z,8.52
2023-01-27T18:29:25.563Z,5.45
2023-01-27T18:31:56.959Z,8.10
2023-01-27T18:34:30.861Z,12.05
2023-01-27T18:37:02.253Z,6.30
2023-01-27T18:39:41.379Z,6.38
2023-01-27T18:42:14.970Z,9.43
2023-01-27T18:44:43.495Z,9.80
2023-01-27T18:47:31.946Z,9.60
2023-01-27T18:50:03.433Z,7.03
2023-01-27T18:52:31.866Z,9.68
2023-01-27T18:55:03.781Z,9.70
2023-01-27T18:57:32.521Z,8.35
2023-01-27T19:00:01.136Z,7.75
2023-01-27T19:02:29.828Z,5.97
2023-01-27T19:05:00.692Z,8.07
2023-01-27T19:07:28.923Z,6.75
2023-01-27T19:09:57.306Z,5.72
2023-01-27T19:12:25.748Z,7.00
2023-01-27T19:14:54.180Z,8.23
2023-01-27T19:17:24.318Z,6.30
2023-01-27T19:19:52.327Z,6.80
2023-01-27T19:22:21.630Z,6.65
2023-01-27T19:24:50.728Z,5.45
2023-01-27T19:27:20.499Z,7.03
2023-01-27T19:29:48.820Z,7.88
2023-01-27T19:32:17.479Z,6.85
2023-01-27T19:34:45.874Z,7.38
2023-01-27T19:37:19.882Z,5.70
2023-01-27T19:39:49.560Z,4.55
2023-01-27T19:42:17.687Z,5.43
2023-01-27T19:44:45.961Z,5.88
2023-01-27T19:47:14.939Z,4.40
2023-01-27T19:49:43.385Z,6.07
2023-01-27T19:52:13.013Z,4.32
2023-01-27T19:54:41.487Z,6.55
2023-01-27T19:57:16.962Z,7.45
2023-01-27T19:59:45.472Z,6.40
2023-01-27T20:02:14.519Z,6.93
2023-01-27T20:04:42.847Z,7.15
2023-01-27T20:07:13.523Z,6.65
2023-01-27T20:09:41.764Z,8.55
2023-01-27T20:12:16.473Z,5.72
2023-01-27T20:14:44.816Z,6.82
2023-01-27T20:17:13.093Z,8.10
2023-01-27T20:19:42.259Z,7.05
2023-01-27T20:22:15.149Z,7.38
2023-01-27T20:24:43.383Z,5.93
2023-01-27T20:27:11.830Z,5.75
2023-01-27T20:29:41.806Z,6.32
2023-01-27T20:32:10.689Z,6.82
2023-01-27T20:34:40.542Z,5.75
2023-01-27T20:37:08.895Z,5.78
2023-01-27T20:39:38.515Z,6.25
2023-01-27T20:42:07.570Z,6.00
2023-01-27T20:44:35.916Z,9.48
2023-01-27T20:47:05.321Z,7.75
2023-01-27T20:49:33.938Z,9.23
2023-01-27T20:52:02.701Z,9.43
2023-01-27T20:54:31.316Z,6.60
2023-01-27T20:56:59.626Z,7.22
2023-01-27T20:59:27.934Z,6.70
2023-01-27T21:01:56.203Z,8.80
2023-01-27T21:04:25.652Z,6.72
2023-01-27T21:06:53.985Z,7.15
2023-01-27T21:09:24.831Z,7.90
2023-01-27T21:11:53.544Z,8.20
2023-01-27T21:14:21.829Z,6.82
2023-01-27T21:16:50.307Z,6.70
2023-01-27T21:19:20.624Z,7.05
2023-01-27T21:21:49.926Z,7.25
2023-01-27T21:24:18.948Z,10.30
2023-01-27T21:26:47.302Z,8.75
2023-01-27T21:29:15.726Z,7.75
2023-01-27T21:31:44.359Z,8.70
2023-01-27T21:34:13.124Z,8.60
2023-01-27T21:36:44.121Z,11.10
2023-01-27T21:39:16.093Z,9.02
2023-01-27T21:42:03.353Z,7.55
2023-01-27T21:44:49.483Z,11.57
2023-01-27T21:47:23.361Z,9.30
2023-01-27T21:50:07.423Z,11.80
2023-01-27T21:52:40.093Z,7.90
2023-01-27T21:55:14.397Z,9.57
2023-01-27T21:57:43.206Z,9.90
2023-01-27T22:00:14.178Z,8.63
2023-01-27T22:02:43.980Z,8.88
2023-01-27T22:05:13.315Z,8.05
2023-01-27T22:07:42.099Z,9.65
2023-01-27T22:10:16.717Z,9.75
2023-01-27T22:12:45.660Z,10.82
2023-01-27T22:15:16.095Z,8.65
2023-01-27T22:17:45.337Z,11.13
2023-01-27T22:20:14.433Z,8.90
2023-01-27T22:22:43.177Z,8.38
2023-01-27T22:25:16.349Z,11.30
2023-01-27T22:27:45.095Z,7.55
2023-01-27T22:30:16.313Z,9.15
2023-01-27T22:32:44.765Z,10.65
2023-01-27T22:35:17.943Z,8.32
2023-01-27T22:37:48.848Z,9.13
2023-01-27T22:40:19.503Z,9.88
2023-01-27T22:42:49.869Z,9.63
2023-01-27T22:45:18.519Z,9.60
2023-01-27T22:47:46.906Z,9.88
2023-01-27T22:50:15.462Z,9.93
2023-01-27T22:52:44.195Z,11.13
2023-01-27T22:55:14.139Z,11.50
2023-01-27T22:57:45.962Z,10.43
2023-01-27T23:00:14.567Z,10.02
2023-01-27T23:02:43.143Z,10.95
2023-01-27T23:05:12.253Z,11.05
2023-01-27T23:07:43.361Z,9.20
2023-01-27T23:10:12.179Z,9.48
2023-01-27T23:12:40.463Z,9.85
2023-01-27T23:15:12.522Z,8.52
2023-01-27T23:17:42.102Z,8.18
2023-01-27T23:20:11.243Z,8.50
2023-01-27T23:22:39.469Z,9.73
2023-01-27T23:25:08.557Z,7.72
2023-01-27T23:27:36.918Z,9.13
2023-01-27T23:30:09.010Z,9.30
2023-01-27T23:32:38.959Z,9.50
2023-01-27T23:35:08.138Z,11.75
2023-01-27T23:37:36.703Z,10.23
2023-01-27T23:40:05.609Z,13.77
2023-01-27T23:42:34.535Z,14.75
2023-01-27T23:45:06.807Z,11.63
2023-01-27T23:47:35.511Z,10.35
2023-01-27T23:50:05.986Z,10.75
2023-01-27T23:52:35.609Z,10.63
2023-01-27T23:55:04.458Z,13.02
2023-01-27T23:57:33.151Z,11.93
